Lebanon, Wisconsin
Current Conditions -  °F | °C
As of 2:15 PM on Monday 24 Nov 2014 (Local Time) from KRYV Reporting Station
Light Snow Light Snow  
Wind Chill: 19°   Ceiling: 500
Heat Index: 31°   Visibility: 0.75mi
Dew Point: 31°   Wind: 17mph
Humidity: 100%   Direction: 260°W
Pressure: 29.3"   Gusts: 29mph
Location:  43.26°N, 88.63°W
Report Text: KRYV 242015Z AUTO 26015G25KT 3/4SM -SN OVC005 M01/M01 A2930 RMK AO2 T10081008
Loading
Personal Weather Stations






























Interactive Weather Map New forecast layout! Learn more

10-Day Weather Forecast

Advertisements
Track Severe Weather on mobile